createdAt,value
2023-04-16T00:05:21.919Z,5.20
2023-04-16T00:20:23.843Z,4.50
2023-04-16T00:35:25.817Z,3.63
2023-04-16T00:50:27.894Z,3.97
2023-04-16T01:05:30.598Z,4.20
2023-04-16T01:20:36.017Z,4.50
2023-04-16T01:35:38.322Z,6.00
2023-04-16T01:50:40.227Z,4.50
2023-04-16T02:05:42.031Z,4.67
2023-04-16T02:20:45.628Z,5.23
2023-04-16T02:35:48.796Z,5.67
2023-04-16T02:50:50.671Z,5.00
2023-04-16T03:05:52.550Z,5.97
2023-04-16T03:20:54.659Z,4.90
2023-04-16T03:35:57.629Z,5.37
2023-04-16T03:50:59.522Z,5.37
2023-04-16T04:06:01.417Z,4.90
2023-04-16T04:21:08.010Z,5.50
2023-04-16T04:36:09.819Z,6.47
2023-04-16T04:51:11.645Z,4.77
2023-04-16T05:06:13.499Z,4.87
2023-04-16T05:21:15.398Z,4.17
2023-04-16T05:36:17.449Z,5.93
2023-04-16T05:51:19.649Z,5.17
2023-04-16T06:06:21.481Z,4.70
2023-04-16T06:21:23.732Z,4.20
2023-04-16T06:36:27.781Z,3.67
2023-04-16T06:51:29.811Z,3.97
2023-04-16T07:06:32.225Z,3.03
2023-04-16T07:21:34.146Z,2.70
2023-04-16T07:36:36.409Z,2.67
2023-04-16T07:51:38.223Z,2.70
2023-04-16T08:06:40.182Z,2.50
2023-04-16T08:21:42.212Z,3.30
2023-04-16T08:36:44.080Z,2.57
2023-04-16T08:51:51.475Z,2.80
2023-04-16T09:06:55.413Z,1.90
2023-04-16T09:21:57.528Z,5.33
2023-04-16T09:37:18.506Z,2.00
2023-04-16T09:52:22.903Z,2.55
2023-04-16T10:07:29.197Z,1.95
2023-04-16T10:22:31.395Z,2.30
2023-04-16T10:37:33.446Z,2.00
2023-04-16T10:52:35.280Z,2.63
2023-04-16T11:07:39.457Z,2.42
2023-04-16T11:22:42.260Z,1.80
2023-04-16T11:37:44.652Z,2.88
2023-04-16T11:52:47.704Z,2.10
2023-04-16T12:07:49.492Z,2.20
2023-04-16T12:22:53.022Z,2.50
2023-04-16T12:37:54.814Z,4.30
2023-04-16T12:52:57.624Z,2.47
2023-04-16T13:07:59.421Z,2.40
2023-04-16T13:23:01.327Z,2.50
2023-04-16T13:38:03.210Z,3.07
2023-04-16T13:53:05.384Z,3.70
2023-04-16T14:08:07.254Z,2.03
2023-04-16T14:23:09.180Z,2.03
2023-04-16T14:38:11.637Z,2.50
2023-04-16T14:53:13.962Z,2.37
2023-04-16T15:08:16.416Z,2.43
2023-04-16T15:23:18.323Z,2.20
2023-04-16T15:38:23.428Z,2.07
2023-04-16T16:08:29.758Z,2.00
2023-04-16T16:23:31.738Z,1.47
2023-04-16T16:38:33.545Z,2.03
2023-04-16T16:53:35.455Z,1.70
2023-04-16T17:08:37.259Z,1.90
2023-04-16T17:23:41.075Z,2.00
2023-04-16T17:38:44.895Z,1.73
2023-04-16T17:53:46.958Z,1.70
2023-04-16T18:08:48.754Z,1.80
2023-04-16T18:23:50.738Z,2.17
2023-04-16T18:39:01.546Z,1.70
2023-04-16T18:54:04.295Z,1.90
2023-04-16T19:09:06.228Z,2.13
2023-04-16T19:24:08.214Z,2.03
2023-04-16T19:39:10.181Z,2.23
2023-04-16T19:54:13.502Z,2.03
2023-04-16T20:09:15.318Z,2.33
2023-04-16T20:24:17.203Z,3.57
2023-04-16T20:39:20.490Z,1.77
2023-04-16T20:54:24.432Z,1.80
2023-04-16T21:09:26.289Z,2.70
2023-04-16T21:24:28.370Z,3.10
2023-04-16T21:39:31.118Z,2.80
2023-04-16T21:54:32.885Z,2.10
2023-04-16T22:09:38.583Z,2.00
2023-04-16T22:24:40.657Z,2.17
2023-04-16T22:39:42.533Z,2.03
2023-04-16T22:54:44.394Z,2.57
2023-04-16T23:09:46.208Z,2.00
2023-04-16T23:24:48.108Z,1.57
2023-04-16T23:39:49.977Z,1.80
2023-04-16T23:54:51.955Z,1.80
